Time;durP1;ratioP1;P1;durP2;ratioP2;P2;SDS_P1;SDS_P2;PMS_P1;PMS_P2;Temp;Humidity;BMP_temperature;BMP_pressure;BME280_temperature;BME280_humidity;BME280_pressure;Samples;Min_cycle;Max_cycle;Signal;HPM_P1;HPM_P2
2021/05/20 00:00:39;;;;;;;0.70;0.50;;;11.30;99.90;;;;;;5056676;28;20166;-77
2021/05/20 00:03:05;;;;;;;2.07;0.90;;;11.30;99.90;;;;;;5058733;28;20189;-78
2021/05/20 00:05:31;;;;;;;0.80;0.60;;;11.30;99.90;;;;;;5060872;28;20241;-78
2021/05/20 00:07:57;;;;;;;0.70;0.50;;;11.30;99.90;;;;;;5050064;28;20178;-79
2021/05/20 00:10:22;;;;;;;0.70;0.50;;;11.30;99.90;;;;;;5046101;28;20429;-78
2021/05/20 00:12:48;;;;;;;0.70;0.50;;;11.30;99.90;;;;;;5057736;28;20177;-79
2021/05/20 00:15:14;;;;;;;0.70;0.50;;;11.40;99.90;;;;;;5062817;28;20212;-79
2021/05/20 00:17:40;;;;;;;0.70;0.50;;;11.40;99.90;;;;;;5055450;28;20273;-79
2021/05/20 00:20:06;;;;;;;0.70;0.50;;;11.40;99.90;;;;;;5053950;28;20518;-78
2021/05/20 00:22:32;;;;;;;0.70;0.50;;;11.40;99.90;;;;;;5075905;28;20166;-79
2021/05/20 00:24:57;;;;;;;0.70;0.50;;;11.40;99.90;;;;;;5054030;28;21018;-78
2021/05/20 00:27:23;;;;;;;0.70;0.50;;;11.30;99.90;;;;;;5074686;28;20512;-79
2021/05/20 00:29:49;;;;;;;0.70;0.50;;;11.30;99.90;;;;;;5050750;28;20167;-79
2021/05/20 00:32:16;;;;;;;0.70;0.50;;;11.20;99.90;;;;;;5061884;28;20178;-79
2021/05/20 00:34:42;;;;;;;0.70;0.50;;;11.30;99.90;;;;;;5062659;28;20463;-78
2021/05/20 00:37:08;;;;;;;0.70;0.50;;;11.30;99.90;;;;;;5075166;28;20456;-81
2021/05/20 00:39:33;;;;;;;0.70;0.50;;;11.30;99.90;;;;;;5070667;28;20391;-78
2021/05/20 00:42:06;;;;;;;0.70;0.50;;;11.30;99.90;;;;;;5056232;28;20170;-77
2021/05/20 00:44:31;;;;;;;0.70;0.50;;;11.30;99.90;;;;;;5048802;28;20195;-77
2021/05/20 00:46:57;;;;;;;0.70;0.50;;;11.40;99.90;;;;;;5062005;28;20522;-78
2021/05/20 00:49:22;;;;;;;0.70;0.50;;;11.30;99.90;;;;;;5062076;28;20189;-78
2021/05/20 00:51:48;;;;;;;0.70;0.50;;;11.30;99.90;;;;;;5063355;28;20620;-78
2021/05/20 00:54:14;;;;;;;0.70;0.50;;;11.30;99.90;;;;;;5037266;28;20277;-79
2021/05/20 00:56:41;;;;;;;0.83;0.70;;;11.30;99.90;;;;;;5046385;28;20725;-79
2021/05/20 00:59:06;;;;;;;0.70;0.50;;;11.30;99.90;;;;;;5055582;28;20441;-78
2021/05/20 01:01:33;;;;;;;0.70;0.50;;;11.30;99.90;;;;;;5056615;28;20520;-78
2021/05/20 01:03:59;;;;;;;0.70;0.50;;;11.30;99.90;;;;;;5071839;28;20673;-78
2021/05/20 01:06:24;;;;;;;0.90;0.77;;;11.30;99.90;;;;;;5067339;28;20444;-78
2021/05/20 01:08:50;;;;;;;0.70;0.50;;;11.30;99.90;;;;;;5058702;28;20425;-79
2021/05/20 01:11:16;;;;;;;0.70;0.50;;;11.30;99.90;;;;;;5075491;28;20632;-78
2021/05/20 01:13:41;;;;;;;0.70;0.50;;;11.30;99.90;;;;;;5071463;28;20246;-79
2021/05/20 01:16:12;;;;;;;0.70;0.50;;;11.40;99.90;;;;;;5056513;28;20198;-78
2021/05/20 01:18:37;;;;;;;0.70;0.50;;;11.40;99.90;;;;;;5058410;28;20205;-78
2021/05/20 01:21:03;;;;;;;0.70;0.50;;;11.40;99.90;;;;;;5073562;28;20436;-79
2021/05/20 01:23:28;;;;;;;1.33;1.23;;;11.30;99.90;;;;;;5072189;28;20175;-79
2021/05/20 01:25:54;;;;;;;0.70;0.50;;;11.30;99.90;;;;;;5057620;28;20266;-79
2021/05/20 01:28:22;;;;;;;0.70;0.60;;;11.30;99.90;;;;;;5068748;28;20181;-79
2021/05/20 01:30:49;;;;;;;0.70;0.50;;;11.30;99.90;;;;;;5073416;28;20561;-79
2021/05/20 01:33:15;;;;;;;0.70;0.50;;;11.30;99.90;;;;;;5073163;28;20482;-79
2021/05/20 01:35:42;;;;;;;0.70;0.50;;;11.20;99.90;;;;;;5038280;28;20456;-79
2021/05/20 01:40:55;;;;;;;0.70;0.50;;;11.20;99.90;;;;;;5060922;28;20439;-79
2021/05/20 01:43:20;;;;;;;0.70;0.50;;;11.20;99.90;;;;;;5065684;28;20442;-79
2021/05/20 01:45:51;;;;;;;0.70;0.50;;;11.30;99.90;;;;;;5068610;28;20449;-79
2021/05/20 01:48:16;;;;;;;0.70;0.50;;;11.30;99.90;;;;;;5055560;28;20435;-79
2021/05/20 01:50:42;;;;;;;0.70;0.50;;;11.30;99.90;;;;;;5057243;28;20443;-78
2021/05/20 01:53:08;;;;;;;1.10;0.93;;;11.30;99.90;;;;;;5039974;28;20180;-78
2021/05/20 01:55:34;;;;;;;0.70;0.50;;;11.20;99.90;;;;;;5054419;28;20282;-79
2021/05/20 01:57:59;;;;;;;0.70;0.50;;;11.20;99.90;;;;;;5051050;28;20546;-78
2021/05/20 02:00:25;;;;;;;0.70;0.50;;;11.20;99.90;;;;;;5053762;28;20168;-79
2021/05/20 02:02:50;;;;;;;0.70;0.50;;;11.00;99.90;;;;;;5072232;28;20165;-78
2021/05/20 02:05:16;;;;;;;0.70;0.50;;;11.10;99.90;;;;;;5068969;28;20212;-79
2021/05/20 02:07:42;;;;;;;0.70;0.50;;;11.00;99.90;;;;;;5054022;28;20268;-79
2021/05/20 02:10:08;;;;;;;0.70;0.50;;;11.00;99.90;;;;;;5045445;28;20524;-79
2021/05/20 02:12:33;;;;;;;0.70;0.50;;;11.00;99.90;;;;;;5072003;28;20636;-77
2021/05/20 02:14:59;;;;;;;0.70;0.50;;;11.00;99.90;;;;;;5069355;28;20458;-77
2021/05/20 02:17:24;;;;;;;0.70;0.50;;;11.00;99.90;;;;;;5072616;28;20198;-79
2021/05/20 02:19:50;;;;;;;0.70;0.50;;;11.00;99.90;;;;;;5070720;28;20223;-78
2021/05/20 02:22:15;;;;;;;0.70;0.50;;;11.00;99.90;;;;;;5070139;28;20178;-77
2021/05/20 02:24:41;;;;;;;0.70;0.50;;;10.90;99.90;;;;;;5075133;28;20181;-77
2021/05/20 02:27:06;;;;;;;0.70;0.50;;;10.90;99.90;;;;;;5057539;28;20203;-78
2021/05/20 02:29:32;;;;;;;0.70;0.50;;;10.90;99.90;;;;;;5048995;28;20639;-77
2021/05/20 02:31:57;;;;;;;0.70;0.50;;;10.90;99.90;;;;;;5075816;28;20177;-78
2021/05/20 02:34:23;;;;;;;0.70;0.50;;;10.90;99.90;;;;;;5057235;28;20569;-77
2021/05/20 02:36:48;;;;;;;0.70;0.50;;;10.90;99.90;;;;;;5045526;28;20198;-77
2021/05/20 02:39:14;;;;;;;0.93;0.80;;;10.90;99.90;;;;;;5067292;28;20832;-78
2021/05/20 02:41:40;;;;;;;0.70;0.50;;;10.90;99.90;;;;;;5067615;28;20283;-77
2021/05/20 02:44:05;;;;;;;0.70;0.50;;;11.00;99.90;;;;;;5067045;28;20224;-77
2021/05/20 02:46:31;;;;;;;0.70;0.50;;;10.90;99.90;;;;;;5057504;28;20229;-77
2021/05/20 02:48:56;;;;;;;0.70;0.50;;;10.90;99.90;;;;;;5056891;28;20184;-77
2021/05/20 02:51:22;;;;;;;0.70;0.50;;;11.00;99.90;;;;;;5045386;28;20170;-77
2021/05/20 02:53:48;;;;;;;0.70;0.50;;;11.00;99.90;;;;;;5068149;28;20221;-77
2021/05/20 02:56:14;;;;;;;0.70;0.50;;;11.00;99.90;;;;;;5069132;28;20963;-77
2021/05/20 02:58:39;;;;;;;0.70;0.50;;;11.00;99.90;;;;;;5058062;28;20249;-76
2021/05/20 03:01:05;;;;;;;0.70;0.50;;;11.00;99.90;;;;;;5075560;28;20166;-77
2021/05/20 03:03:30;;;;;;;0.70;0.50;;;11.00;99.90;;;;;;5075156;28;20178;-77
2021/05/20 03:05:58;;;;;;;0.70;0.50;;;10.90;99.90;;;;;;5072953;28;20206;-77
2021/05/20 03:08:24;;;;;;;0.70;0.50;;;10.90;99.90;;;;;;5057273;28;20183;-77
2021/05/20 03:10:49;;;;;;;0.70;0.50;;;10.90;99.90;;;;;;5054770;28;20397;-77
2021/05/20 03:13:15;;;;;;;0.70;0.50;;;10.90;99.90;;;;;;5055638;28;20430;-77
2021/05/20 03:15:41;;;;;;;0.70;0.50;;;10.90;99.90;;;;;;5074496;28;20202;-77
2021/05/20 03:18:06;;;;;;;0.70;0.50;;;10.90;99.90;;;;;;5070597;28;20208;-77
2021/05/20 03:20:32;;;;;;;0.70;0.50;;;10.90;99.90;;;;;;5073418;28;20297;-77
2021/05/20 03:22:58;;;;;;;0.70;0.50;;;10.90;99.90;;;;;;5073751;28;20227;-77
2021/05/20 03:25:24;;;;;;;0.70;0.50;;;10.90;99.90;;;;;;5074187;28;20988;-77
2021/05/20 03:27:49;;;;;;;1.27;0.70;;;10.90;99.90;;;;;;5073302;28;20269;-77
2021/05/20 03:30:15;;;;;;;0.70;0.50;;;10.90;99.90;;;;;;5060104;28;20278;-77
2021/05/20 03:32:41;;;;;;;0.70;0.50;;;10.90;99.90;;;;;;5072934;28;20280;-77
2021/05/20 03:35:08;;;;;;;0.70;0.50;;;10.90;99.90;;;;;;5060623;28;20481;-77
2021/05/20 03:37:35;;;;;;;0.70;0.50;;;11.00;99.90;;;;;;5069539;28;20494;-77
2021/05/20 03:40:01;;;;;;;0.70;0.50;;;10.90;99.90;;;;;;5074329;28;20452;-77
2021/05/20 03:42:26;;;;;;;0.70;0.50;;;10.90;99.90;;;;;;5074691;28;20425;-77
2021/05/20 03:44:52;;;;;;;0.70;0.50;;;10.80;99.90;;;;;;5059076;28;20476;-77
2021/05/20 03:47:18;;;;;;;0.70;0.50;;;10.90;99.90;;;;;;5072053;28;20208;-77
2021/05/20 03:49:43;;;;;;;0.70;0.50;;;10.90;99.90;;;;;;5049663;28;20202;-77
2021/05/20 03:52:09;;;;;;;0.70;0.50;;;10.90;99.90;;;;;;5058622;28;20189;-77
2021/05/20 03:54:39;;;;;;;0.83;0.83;;;10.90;99.90;;;;;;5064023;28;20202;-77
2021/05/20 03:57:05;;;;;;;0.70;0.60;;;10.90;99.90;;;;;;5062889;28;20197;-77
2021/05/20 03:59:31;;;;;;;0.70;0.50;;;10.90;99.90;;;;;;5073506;28;20419;-77
2021/05/20 04:01:56;;;;;;;0.70;0.50;;;10.90;99.90;;;;;;5054915;28;20937;-77
2021/05/20 04:04:22;;;;;;;0.70;0.50;;;10.90;99.90;;;;;;5052693;28;20227;-78
2021/05/20 04:06:47;;;;;;;0.70;0.50;;;10.80;99.90;;;;;;5067990;28;21004;-78
2021/05/20 04:09:13;;;;;;;0.70;0.50;;;10.80;99.90;;;;;;5051373;28;20218;-78
2021/05/20 04:11:38;;;;;;;0.70;0.50;;;10.90;99.90;;;;;;5074390;28;20178;-78
2021/05/20 04:14:04;;;;;;;0.70;0.50;;;10.80;99.90;;;;;;5063417;28;20178;-78
2021/05/20 04:16:29;;;;;;;0.70;0.47;;;10.70;99.90;;;;;;5074113;28;20243;-78
2021/05/20 04:18:55;;;;;;;0.70;0.47;;;10.70;99.90;;;;;;5050893;28;20278;-78
2021/05/20 04:21:21;;;;;;;0.70;0.50;;;10.70;99.90;;;;;;5060659;28;20171;-78
2021/05/20 04:23:47;;;;;;;0.80;0.80;;;10.70;99.90;;;;;;5042965;28;20197;-77
2021/05/20 04:26:18;;;;;;;0.70;0.50;;;10.70;99.90;;;;;;5070733;28;20238;-78
2021/05/20 04:28:44;;;;;;;0.70;0.50;;;10.70;99.90;;;;;;5071562;28;20522;-78
2021/05/20 04:31:09;;;;;;;0.70;0.50;;;10.70;99.90;;;;;;5069357;28;21028;-77
2021/05/20 04:33:35;;;;;;;0.70;0.50;;;10.80;99.90;;;;;;5074611;28;20670;-78
2021/05/20 04:36:00;;;;;;;0.70;0.50;;;10.90;99.90;;;;;;5062457;28;20581;-78
2021/05/20 04:38:26;;;;;;;0.70;0.50;;;10.90;99.90;;;;;;5067724;28;20197;-78
2021/05/20 04:40:51;;;;;;;0.70;0.50;;;10.90;99.90;;;;;;5063671;28;20186;-78
2021/05/20 04:43:17;;;;;;;0.70;0.50;;;10.90;99.90;;;;;;5061314;28;20181;-78
2021/05/20 04:45:44;;;;;;;0.97;0.87;;;10.90;99.90;;;;;;5074413;28;20201;-78
2021/05/20 04:48:10;;;;;;;0.70;0.50;;;11.00;99.90;;;;;;5074173;28;20169;-78
2021/05/20 04:50:36;;;;;;;0.70;0.50;;;11.00;99.90;;;;;;5051983;28;20482;-78
2021/05/20 04:53:01;;;;;;;0.70;0.50;;;11.00;99.90;;;;;;5067360;28;20186;-78
2021/05/20 04:55:27;;;;;;;0.70;0.50;;;11.20;99.90;;;;;;5054024;28;20204;-78
2021/05/20 04:57:52;;;;;;;2.87;2.60;;;11.20;99.90;;;;;;5072145;28;20624;-78
2021/05/20 05:00:18;;;;;;;1.97;1.33;;;11.30;99.90;;;;;;5046012;28;20605;-77
2021/05/20 05:02:44;;;;;;;0.70;0.50;;;11.30;99.90;;;;;;5057794;28;20199;-78
2021/05/20 05:05:10;;;;;;;0.70;0.50;;;11.30;99.90;;;;;;5066348;28;20444;-78
2021/05/20 05:07:35;;;;;;;1.17;1.07;;;11.30;99.90;;;;;;5045073;28;20212;-78
2021/05/20 05:10:03;;;;;;;0.70;0.50;;;11.30;99.90;;;;;;5041067;28;20482;-78
2021/05/20 05:12:29;;;;;;;0.70;0.50;;;11.30;99.90;;;;;;5057775;28;20570;-78
2021/05/20 05:14:57;;;;;;;4.00;3.07;;;11.40;99.90;;;;;;5057072;28;20446;-78
2021/05/20 05:17:22;;;;;;;2.73;1.20;;;11.40;99.90;;;;;;5075228;28;20209;-78
2021/05/20 05:19:48;;;;;;;0.70;0.60;;;11.40;99.90;;;;;;5072292;28;20452;-78
2021/05/20 05:22:14;;;;;;;1.90;1.13;;;11.60;99.90;;;;;;5073106;28;20515;-78
2021/05/20 05:24:40;;;;;;;0.70;0.50;;;11.70;99.90;;;;;;5073233;28;20174;-78
2021/05/20 05:27:06;;;;;;;0.70;0.50;;;11.70;99.90;;;;;;5046984;28;20194;-78
2021/05/20 05:29:33;;;;;;;0.80;0.80;;;11.80;99.90;;;;;;5056081;28;20443;-78
2021/05/20 05:31:59;;;;;;;0.70;0.50;;;11.80;99.90;;;;;;5055943;28;20179;-77
2021/05/20 05:34:24;;;;;;;0.70;0.50;;;11.90;99.90;;;;;;5037935;28;20437;-78
2021/05/20 05:36:50;;;;;;;0.70;0.50;;;11.90;99.90;;;;;;5056547;28;20190;-78
2021/05/20 05:39:15;;;;;;;0.70;0.60;;;11.70;99.90;;;;;;5054114;28;20170;-78
2021/05/20 05:41:41;;;;;;;0.70;0.70;;;11.80;99.90;;;;;;5074357;28;20166;-78
2021/05/20 05:44:07;;;;;;;0.70;0.50;;;11.90;99.90;;;;;;5059158;28;20181;-78
2021/05/20 05:46:34;;;;;;;0.70;0.50;;;11.60;99.90;;;;;;5074703;28;20235;-79
2021/05/20 05:49:10;;;;;;;0.70;0.50;;;11.60;99.90;;;;;;5048950;28;21000;-78
2021/05/20 05:51:37;;;;;;;1.53;1.37;;;11.60;99.90;;;;;;5041490;28;20827;-79
2021/05/20 05:54:03;;;;;;;0.70;0.50;;;11.70;99.90;;;;;;5066526;28;20483;-79
2021/05/20 05:56:29;;;;;;;0.70;0.50;;;11.90;99.90;;;;;;5046937;28;20545;-78
2021/05/20 05:58:54;;;;;;;0.70;0.50;;;12.10;99.90;;;;;;5050108;28;20499;-79
2021/05/20 06:01:20;;;;;;;0.70;0.50;;;12.20;99.90;;;;;;5074391;28;20170;-79
2021/05/20 06:03:45;;;;;;;0.70;0.50;;;12.50;99.90;;;;;;5067936;28;20170;-79
2021/05/20 06:06:11;;;;;;;0.70;0.50;;;12.70;99.90;;;;;;5042879;28;20288;-80
2021/05/20 06:08:37;;;;;;;0.90;0.70;;;12.60;99.90;;;;;;5039137;28;20198;-79
2021/05/20 06:11:03;;;;;;;0.70;0.50;;;12.90;99.90;;;;;;5074989;28;20411;-78
2021/05/20 06:13:28;;;;;;;0.70;0.50;;;12.70;99.90;;;;;;5054372;28;20182;-79
2021/05/20 06:15:54;;;;;;;0.70;0.50;;;12.70;99.90;;;;;;5074267;28;20198;-80
2021/05/20 06:18:19;;;;;;;0.70;0.50;;;13.00;99.90;;;;;;5055503;28;20469;-80
2021/05/20 06:20:45;;;;;;;0.70;0.50;;;12.90;99.90;;;;;;5041074;28;20651;-79
2021/05/20 06:23:11;;;;;;;0.70;0.50;;;13.00;99.90;;;;;;5049817;28;20265;-79
2021/05/20 06:25:36;;;;;;;0.70;0.50;;;12.80;99.90;;;;;;5068873;28;20198;-80
2021/05/20 06:28:08;;;;;;;0.70;0.50;;;12.80;99.90;;;;;;5052857;28;20186;-79
2021/05/20 06:30:34;;;;;;;0.70;0.50;;;13.00;99.90;;;;;;5071328;28;20220;-81
2021/05/20 06:32:59;;;;;;;0.70;0.50;;;13.40;99.90;;;;;;5078953;28;20412;-80
2021/05/20 06:35:25;;;;;;;0.70;0.50;;;13.50;99.90;;;;;;5081355;28;21000;-80
2021/05/20 06:37:50;;;;;;;0.70;0.50;;;13.70;99.90;;;;;;5046414;28;20210;-81
2021/05/20 06:40:17;;;;;;;0.70;0.50;;;13.60;99.90;;;;;;5055090;28;20185;-79
2021/05/20 06:42:42;;;;;;;0.70;0.60;;;13.80;99.90;;;;;;5067803;28;20541;-81
2021/05/20 06:45:09;;;;;;;0.70;0.50;;;14.00;99.90;;;;;;5059261;28;20428;-81
2021/05/20 06:47:34;;;;;;;0.70;0.50;;;14.10;99.90;;;;;;5059517;28;20179;-80
2021/05/20 06:50:00;;;;;;;0.70;0.50;;;14.30;99.90;;;;;;5073538;28;20444;-79
2021/05/20 06:52:26;;;;;;;0.70;0.50;;;14.00;99.90;;;;;;5074337;28;20171;-81
2021/05/20 06:54:51;;;;;;;0.70;0.50;;;14.00;99.90;;;;;;5076397;28;20789;-80
2021/05/20 06:59:56;;;;;;;0.70;0.50;;;14.10;99.90;;;;;;5058157;28;20560;-80
2021/05/20 07:00:16;;;;;;;0.70;0.50;;;14.00;99.90;;;;;;5076650;28;20176;-80
2021/05/20 07:02:41;;;;;;;0.70;0.50;;;14.00;99.90;;;;;;5060966;28;20503;-80
2021/05/20 07:05:07;;;;;;;0.70;0.50;;;13.70;99.90;;;;;;5076502;28;20436;-80
2021/05/20 07:07:32;;;;;;;0.70;0.50;;;13.60;99.90;;;;;;5065807;28;20178;-80
2021/05/20 07:09:58;;;;;;;0.70;0.50;;;13.80;99.90;;;;;;5061205;28;20201;-81
2021/05/20 07:12:23;;;;;;;0.70;0.50;;;13.70;99.90;;;;;;5081071;28;20252;-80
2021/05/20 07:14:49;;;;;;;0.90;0.80;;;13.40;99.90;;;;;;5063391;28;20205;-80
2021/05/20 07:17:15;;;;;;;0.70;0.50;;;13.60;99.90;;;;;;5061430;28;20651;-81
2021/05/20 07:19:40;;;;;;;0.70;0.50;;;14.00;99.90;;;;;;5044596;28;20170;-80
2021/05/20 07:22:06;;;;;;;0.70;0.50;;;14.20;99.90;;;;;;5065476;28;20206;-80
2021/05/20 07:24:32;;;;;;;0.70;0.50;;;14.20;99.90;;;;;;5051119;28;20274;-80
2021/05/20 07:26:58;;;;;;;0.70;0.50;;;14.10;99.90;;;;;;5079313;28;20273;-81
2021/05/20 07:29:24;;;;;;;0.70;0.50;;;14.00;99.90;;;;;;5077942;28;20509;-80
2021/05/20 07:31:50;;;;;;;0.70;0.50;;;14.20;99.90;;;;;;5078565;28;20259;-80
2021/05/20 07:34:16;;;;;;;0.70;0.50;;;14.40;99.90;;;;;;5077734;28;20434;-80
2021/05/20 07:36:42;;;;;;;0.70;0.50;;;14.60;99.90;;;;;;5075371;28;20436;-80
2021/05/20 07:39:08;;;;;;;0.70;0.50;;;14.70;99.90;;;;;;5047814;28;20482;-80
2021/05/20 07:41:34;;;;;;;3.47;1.37;;;14.80;99.90;;;;;;5059218;28;20274;-80
2021/05/20 07:44:00;;;;;;;0.70;0.50;;;14.60;99.90;;;;;;5077263;28;20848;-80
2021/05/20 07:46:26;;;;;;;0.70;0.50;;;15.00;99.90;;;;;;5063232;28;20448;-80
2021/05/20 07:48:52;;;;;;;0.70;0.50;;;15.60;99.90;;;;;;5074843;28;20472;-80
2021/05/20 07:51:18;;;;;;;1.33;1.23;;;16.20;99.90;;;;;;5082279;28;20170;-82
2021/05/20 07:53:43;;;;;;;0.70;0.50;;;16.30;99.90;;;;;;5077468;28;20197;-81
2021/05/20 07:56:09;;;;;;;0.70;0.50;;;16.40;99.90;;;;;;5083618;28;20567;-81
2021/05/20 07:58:35;;;;;;;1.00;0.87;;;16.40;99.90;;;;;;5068625;28;20202;-81
2021/05/20 08:01:02;;;;;;;0.70;0.50;;;16.40;99.90;;;;;;5071597;28;20188;-79
2021/05/20 08:04:08;;;;;;;0.70;0.67;;;16.10;99.90;;;;;;5066420;28;20170;-80
2021/05/20 08:06:24;;;;;;;0.70;0.50;;;16.10;99.90;;;;;;5070484;28;21002;-77
2021/05/20 08:09:01;;;;;;;0.70;0.50;;;15.90;99.90;;;;;;5062191;28;20418;-77
2021/05/20 08:11:27;;;;;;;0.70;0.50;;;16.20;99.90;;;;;;5061721;28;20420;-79
2021/05/20 08:13:53;;;;;;;0.70;0.50;;;15.90;99.90;;;;;;5051501;28;20428;-76
2021/05/20 08:16:20;;;;;;;0.97;0.97;;;16.10;99.90;;;;;;5070498;28;20239;-76
2021/05/20 08:18:45;;;;;;;0.70;0.50;;;16.00;99.90;;;;;;5075158;28;20460;-78
2021/05/20 08:21:11;;;;;;;0.70;0.50;;;16.20;99.90;;;;;;5072347;28;20913;-76
2021/05/20 08:23:37;;;;;;;0.70;0.50;;;16.40;99.90;;;;;;5074708;28;20170;-78
2021/05/20 08:26:04;;;;;;;0.80;0.77;;;16.30;99.90;;;;;;5057982;28;20471;-78
2021/05/20 08:28:30;;;;;;;0.70;0.50;;;16.20;99.90;;;;;;5057162;28;20174;-75
2021/05/20 08:30:56;;;;;;;0.70;0.50;;;16.20;99.90;;;;;;5059699;28;20424;-75
2021/05/20 08:33:22;;;;;;;0.70;0.50;;;16.30;99.90;;;;;;5056039;28;20198;-75
2021/05/20 08:35:48;;;;;;;0.70;0.50;;;16.50;99.90;;;;;;5074222;28;20447;-75
2021/05/20 08:38:14;;;;;;;0.93;0.80;;;17.10;99.90;;;;;;5074191;28;20202;-75
2021/05/20 08:40:41;;;;;;;0.70;0.50;;;18.00;99.90;;;;;;5072118;28;20428;-76
2021/05/20 08:43:06;;;;;;;0.70;0.50;;;18.20;99.90;;;;;;5073196;28;20420;-75
2021/05/20 08:45:33;;;;;;;0.70;0.50;;;18.30;99.90;;;;;;5056116;28;20790;-75
2021/05/20 08:48:00;;;;;;;0.70;0.50;;;18.70;99.90;;;;;;5069491;28;20178;-75
2021/05/20 08:50:29;;;;;;;0.70;0.50;;;18.30;99.90;;;;;;5072173;28;20428;-76
2021/05/20 08:52:55;;;;;;;0.70;0.50;;;18.50;99.90;;;;;;5073091;28;20419;-76
2021/05/20 08:55:22;;;;;;;0.70;0.50;;;19.00;99.90;;;;;;5073213;28;20424;-75
2021/05/20 08:57:49;;;;;;;0.70;0.50;;;19.50;99.90;;;;;;5072757;28;20458;-76
2021/05/20 09:00:20;;;;;;;0.80;0.50;;;20.30;99.90;;;;;;5071856;28;20397;-75
2021/05/20 09:02:47;;;;;;;0.70;0.50;;;19.70;99.90;;;;;;5072307;28;20470;-75
2021/05/20 09:05:17;;;;;;;0.70;0.50;;;19.20;99.90;;;;;;5053780;28;20507;-75
2021/05/20 09:07:48;;;;;;;0.70;0.50;;;19.50;99.90;;;;;;5052457;28;20405;-75
2021/05/20 09:10:18;;;;;;;0.77;0.50;;;19.90;99.90;;;;;;5053998;28;20409;-76
2021/05/20 09:12:44;;;;;;;0.80;0.50;;;20.20;99.90;;;;;;5072014;28;20418;-76
2021/05/20 09:15:17;;;;;;;0.80;0.50;;;20.90;99.90;;;;;;5071844;28;20925;-77
2021/05/20 09:17:44;;;;;;;0.80;0.60;;;21.70;99.90;;;;;;5069565;28;20539;-76
2021/05/20 09:20:10;;;;;;;0.80;0.50;;;22.30;99.90;;;;;;5070742;28;20421;-76
2021/05/20 09:22:36;;;;;;;0.90;0.70;;;21.50;98.30;;;;;;5070355;28;20408;-76
2021/05/20 09:27:36;;;;;;;0.80;0.50;;;23.10;99.90;;;;;;5059866;22;20516;-77
2021/05/20 09:30:18;;;;;;;0.80;0.50;;;23.80;99.90;;;;;;5049338;28;20429;-76
2021/05/20 09:32:56;;;;;;;0.80;0.50;;;24.60;94.30;;;;;;5050029;28;20848;-77
2021/05/20 09:35:24;;;;;;;0.80;0.50;;;24.80;91.50;;;;;;5053832;28;20424;-77
2021/05/20 09:37:58;;;;;;;0.80;0.50;;;25.00;82.10;;;;;;5071301;28;20413;-76
2021/05/20 09:40:27;;;;;;;0.80;0.50;;;25.40;84.70;;;;;;5066047;28;20470;-75
2021/05/20 09:42:53;;;;;;;0.80;0.50;;;25.40;78.10;;;;;;5068514;28;20404;-75
2021/05/20 09:45:22;;;;;;;0.80;0.50;;;25.30;79.10;;;;;;5069594;28;20409;-75
2021/05/20 09:47:48;;;;;;;0.80;0.50;;;25.60;79.00;;;;;;5071392;28;20456;-76
2021/05/20 09:50:20;;;;;;;0.80;0.50;;;25.60;70.60;;;;;;5070888;28;20412;-75
2021/05/20 09:52:48;;;;;;;0.80;0.50;;;25.80;70.00;;;;;;5068233;28;20435;-75
2021/05/20 09:55:24;;;;;;;0.80;0.50;;;26.00;66.10;;;;;;5069528;28;20412;-75
2021/05/20 09:57:50;;;;;;;0.80;0.50;;;25.70;64.10;;;;;;5051174;28;20413;-76
2021/05/20 10:00:21;;;;;;;0.80;0.50;;;25.80;67.70;;;;;;5069666;28;20423;-75
2021/05/20 10:02:59;;;;;;;0.80;0.50;;;25.70;63.30;;;;;;5070781;28;20799;-74
2021/05/20 10:05:36;;;;;;;0.80;0.50;;;25.40;63.10;;;;;;5067554;28;20427;-74
2021/05/20 10:08:07;;;;;;;0.80;0.50;;;23.60;62.30;;;;;;5053268;28;20456;-74
2021/05/20 10:10:38;;;;;;;0.80;0.50;;;22.30;65.10;;;;;;5063998;28;20412;-75
2021/05/20 10:13:08;;;;;;;0.80;0.50;;;21.90;67.10;;;;;;5071226;28;20847;-75
2021/05/20 10:15:35;;;;;;;0.80;0.50;;;22.30;74.80;;;;;;5062970;28;20433;-74
2021/05/20 10:18:06;;;;;;;1.03;0.93;;;22.40;71.50;;;;;;5070186;28;20416;-74
2021/05/20 10:20:34;;;;;;;0.80;0.50;;;22.10;72.20;;;;;;5070983;28;20412;-76
2021/05/20 10:23:00;;;;;;;0.77;0.50;;;22.40;72.10;;;;;;5055354;28;20474;-79
2021/05/20 10:25:26;;;;;;;0.80;0.50;;;22.40;78.30;;;;;;5071015;28;20433;-78
2021/05/20 10:27:52;;;;;;;0.80;0.60;;;21.90;77.50;;;;;;5075813;28;20493;-80
2021/05/20 10:30:22;;;;;;;0.80;0.50;;;21.90;71.20;;;;;;5073903;28;20419;-79
2021/05/20 10:32:48;;;;;;;0.80;0.50;;;21.90;73.00;;;;;;5071063;28;20416;-78
2021/05/20 10:35:15;;;;;;;0.80;0.50;;;21.50;75.70;;;;;;5058519;28;20413;-77
2021/05/20 10:37:42;;;;;;;5.13;0.80;;;21.10;77.40;;;;;;5058985;28;20454;-79
2021/05/20 10:40:30;;;;;;;0.70;0.50;;;21.40;80.10;;;;;;5072190;28;20845;-80
2021/05/20 10:43:12;;;;;;;0.80;0.50;;;21.80;77.10;;;;;;5071173;28;20419;-80
2021/05/20 10:45:40;;;;;;;0.80;0.50;;;21.90;69.40;;;;;;5071966;28;20440;-80
2021/05/20 10:48:07;;;;;;;0.80;0.50;;;22.20;70.50;;;;;;5073962;28;20509;-80
2021/05/20 10:50:53;;;;;;;0.80;0.50;;;22.90;75.30;;;;;;5074649;28;20495;-79
2021/05/20 10:53:37;;;;;;;0.80;0.50;;;23.30;69.50;;;;;;5054614;28;20432;-80
2021/05/20 10:56:06;;;;;;;0.80;0.60;;;22.60;63.90;;;;;;5056450;28;20463;-79
2021/05/20 10:58:37;;;;;;;0.80;0.50;;;22.40;63.40;;;;;;5072748;28;20412;-80
2021/05/20 11:01:08;;;;;;;0.80;0.50;;;22.90;62.40;;;;;;5052400;28;20420;-78
2021/05/20 11:03:46;;;;;;;0.80;0.50;;;22.80;64.00;;;;;;5073960;28;20396;-81
2021/05/20 11:06:17;;;;;;;0.80;0.50;;;23.00;63.20;;;;;;5055747;28;20416;-78
2021/05/20 11:08:42;;;;;;;0.80;0.50;;;23.80;65.40;;;;;;5056152;28;20463;-77
2021/05/20 11:11:22;;;;;;;0.80;0.50;;;24.20;65.50;;;;;;5073748;28;20495;-78
2021/05/20 11:13:48;;;;;;;0.80;0.53;;;24.80;64.60;;;;;;5076065;28;20695;-78
2021/05/20 11:16:34;;;;;;;0.80;0.50;;;24.20;59.70;;;;;;5057854;28;20456;-81
2021/05/20 11:21:58;;;;;;;0.80;0.50;;;24.20;59.20;;;;;;5075037;28;20423;-79
2021/05/20 11:24:27;;;;;;;0.80;0.50;;;24.40;58.60;;;;;;5058742;28;20404;-80
2021/05/20 11:26:55;;;;;;;0.80;0.50;;;23.20;57.90;;;;;;5068642;28;20582;-80
2021/05/20 11:29:28;;;;;;;0.80;0.60;;;22.60;59.90;;;;;;5056779;28;20404;-79
2021/05/20 11:37:08;;;;;;;0.80;0.50;;;23.50;58.50;;;;;;5070901;28;20448;-79
2021/05/20 11:39:34;;;;;;;0.70;0.50;;;23.80;58.80;;;;;;5073787;28;20423;-80
2021/05/20 11:42:03;;;;;;;0.77;0.50;;;23.20;58.00;;;;;;5058649;28;20504;-80
2021/05/20 11:44:30;;;;;;;0.80;0.50;;;22.40;58.60;;;;;;5056699;28;20185;-79
2021/05/20 11:46:55;;;;;;;0.80;0.50;;;21.90;62.40;;;;;;5053572;28;20444;-79
2021/05/20 11:49:21;;;;;;;0.80;0.50;;;21.00;60.80;;;;;;5074850;28;20412;-79
2021/05/20 11:51:48;;;;;;;0.80;0.50;;;20.90;63.50;;;;;;5057905;28;20241;-79
2021/05/20 11:54:16;;;;;;;0.77;0.50;;;20.50;66.00;;;;;;5057502;28;20471;-79
2021/05/20 11:56:51;;;;;;;0.70;0.50;;;20.20;70.70;;;;;;5070676;28;20512;-80
2021/05/20 11:59:38;;;;;;;0.70;0.50;;;20.20;72.50;;;;;;5054939;28;20947;-78
2021/05/20 12:02:21;;;;;;;0.80;0.50;;;19.90;71.20;;;;;;5072819;28;20491;-78
2021/05/20 12:04:48;;;;;;;0.80;0.50;;;20.30;74.80;;;;;;5074605;28;20423;-78
2021/05/20 12:07:21;;;;;;;0.80;0.50;;;20.30;71.60;;;;;;5056917;28;20440;-78
2021/05/20 12:09:47;;;;;;;0.80;0.50;;;20.80;70.70;;;;;;5058511;28;20420;-80
2021/05/20 12:12:16;;;;;;;0.70;0.50;;;21.20;69.50;;;;;;5059492;28;20780;-78
2021/05/20 12:14:42;;;;;;;0.80;0.50;;;21.50;68.70;;;;;;5065943;28;20205;-79
2021/05/20 12:17:19;;;;;;;0.80;0.50;;;21.70;65.90;;;;;;5070833;28;20504;-80
2021/05/20 12:19:47;;;;;;;0.70;0.50;;;22.10;65.10;;;;;;5081152;28;20424;-80
2021/05/20 12:22:33;;;;;;;0.70;0.50;;;21.70;66.50;;;;;;5083843;28;20401;-80
2021/05/20 12:25:00;;;;;;;0.70;0.50;;;20.80;64.00;;;;;;5065464;28;20408;-78
2021/05/20 12:27:43;;;;;;;0.80;0.50;;;20.90;65.10;;;;;;5061739;28;20487;-79
2021/05/20 12:30:25;;;;;;;0.80;0.50;;;20.60;63.70;;;;;;5042379;28;20964;-79
2021/05/20 12:32:51;;;;;;;0.70;0.50;;;21.00;68.50;;;;;;5062318;28;20427;-80
2021/05/20 12:35:29;;;;;;;1.00;0.70;;;21.50;69.70;;;;;;5058804;28;20447;-79
2021/05/20 12:37:58;;;;;;;0.70;0.50;;;22.00;69.00;;;;;;5074375;28;20400;-79
2021/05/20 12:40:32;;;;;;;0.70;0.50;;;21.60;62.40;;;;;;5065779;28;20420;-79
2021/05/20 12:43:09;;;;;;;0.80;0.50;;;21.80;63.00;;;;;;5080367;28;20496;-80
2021/05/20 12:45:39;;;;;;;0.70;0.50;;;22.10;63.50;;;;;;5059470;28;20957;-81
2021/05/20 12:48:28;;;;;;;0.70;0.50;;;22.10;67.10;;;;;;5057385;28;20457;-81
2021/05/20 12:50:56;;;;;;;0.70;0.50;;;22.00;66.10;;;;;;5042115;28;20459;-81
2021/05/20 12:53:25;;;;;;;0.77;0.50;;;22.30;66.40;;;;;;5056997;28;20412;-80
2021/05/20 12:55:53;;;;;;;0.70;0.50;;;22.30;60.50;;;;;;5072195;28;21011;-80
2021/05/20 12:58:18;;;;;;;0.80;0.50;;;22.60;58.90;;;;;;5067456;28;20420;-81
2021/05/20 13:00:58;;;;;;;0.73;0.50;;;22.30;58.50;;;;;;5076676;28;20804;-81
2021/05/20 13:03:46;;;;;;;0.70;0.50;;;22.40;58.60;;;;;;5076777;28;20651;-80